sensor_id;sensor_type;location;lat;lon;timestamp;pressure;altitude;pressure_sealevel;temperature;humidity
19086;BME280;9675;51.538;6.728;2023-03-01T00:01:01;102743.94;;;3.62;59.03
19086;BME280;9675;51.538;6.728;2023-03-01T00:03:29;102747.03;;;3.60;59.58
19086;BME280;9675;51.538;6.728;2023-03-01T00:05:56;102748.34;;;3.56;59.98
19086;BME280;9675;51.538;6.728;2023-03-01T00:08:23;102753.09;;;3.53;60.38
19086;BME280;9675;51.538;6.728;2023-03-01T00:10:59;102749.34;;;3.50;60.23
19086;BME280;9675;51.538;6.728;2023-03-01T00:13:27;102741.38;;;3.47;59.85
19086;BME280;9675;51.538;6.728;2023-03-01T00:15:55;102735.19;;;3.45;60.29
19086;BME280;9675;51.538;6.728;2023-03-01T00:18:22;102742.66;;;3.43;59.76
19086;BME280;9675;51.538;6.728;2023-03-01T00:20:54;102732.16;;;3.40;59.85
19086;BME280;9675;51.538;6.728;2023-03-01T00:23:22;102743.50;;;3.35;59.70
19086;BME280;9675;51.538;6.728;2023-03-01T00:25:50;102739.88;;;3.33;60.09
19086;BME280;9675;51.538;6.728;2023-03-01T00:28:18;102738.63;;;3.29;60.73
19086;BME280;9675;51.538;6.728;2023-03-01T00:30:46;102723.91;;;3.27;60.78
19086;BME280;9675;51.538;6.728;2023-03-01T00:33:15;102726.88;;;3.23;61.08
19086;BME280;9675;51.538;6.728;2023-03-01T00:35:42;102719.66;;;3.19;61.19
19086;BME280;9675;51.538;6.728;2023-03-01T00:38:09;102726.22;;;3.17;61.20
19086;BME280;9675;51.538;6.728;2023-03-01T00:40:36;102726.06;;;3.15;61.04
19086;BME280;9675;51.538;6.728;2023-03-01T00:43:04;102725.88;;;3.14;60.61
19086;BME280;9675;51.538;6.728;2023-03-01T00:45:33;102713.88;;;3.13;61.07
19086;BME280;9675;51.538;6.728;2023-03-01T00:48:00;102712.56;;;3.16;60.86
19086;BME280;9675;51.538;6.728;2023-03-01T00:50:28;102709.16;;;3.16;60.80
19086;BME280;9675;51.538;6.728;2023-03-01T00:52:56;102709.63;;;3.05;61.27
19086;BME280;9675;51.538;6.728;2023-03-01T00:55:23;102699.81;;;3.00;61.74
19086;BME280;9675;51.538;6.728;2023-03-01T00:57:51;102703.69;;;2.97;61.27
19086;BME280;9675;51.538;6.728;2023-03-01T01:00:19;102701.72;;;2.94;61.82
19086;BME280;9675;51.538;6.728;2023-03-01T01:02:46;102699.56;;;2.90;61.98
19086;BME280;9675;51.538;6.728;2023-03-01T01:05:14;102693.25;;;2.87;62.34
19086;BME280;9675;51.538;6.728;2023-03-01T01:07:48;102698.75;;;2.83;62.14
19086;BME280;9675;51.538;6.728;2023-03-01T01:10:15;102701.84;;;2.80;62.02
19086;BME280;9675;51.538;6.728;2023-03-01T01:12:45;102700.06;;;2.79;62.52
19086;BME280;9675;51.538;6.728;2023-03-01T01:15:12;102693.16;;;2.78;62.94
19086;BME280;9675;51.538;6.728;2023-03-01T01:17:42;102697.88;;;2.75;63.28
19086;BME280;9675;51.538;6.728;2023-03-01T01:20:11;102684.84;;;2.72;62.78
19086;BME280;9675;51.538;6.728;2023-03-01T01:22:38;102693.03;;;2.70;63.07
19086;BME280;9675;51.538;6.728;2023-03-01T01:25:08;102685.25;;;2.68;63.82
19086;BME280;9675;51.538;6.728;2023-03-01T01:27:36;102679.81;;;2.65;63.82
19086;BME280;9675;51.538;6.728;2023-03-01T01:30:05;102672.94;;;2.64;63.70
19086;BME280;9675;51.538;6.728;2023-03-01T01:32:32;102659.13;;;2.62;63.94
19086;BME280;9675;51.538;6.728;2023-03-01T01:34:59;102666.44;;;2.59;64.57
19086;BME280;9675;51.538;6.728;2023-03-01T01:37:26;102660.28;;;2.57;64.60
19086;BME280;9675;51.538;6.728;2023-03-01T01:39:57;102648.28;;;2.56;65.16
19086;BME280;9675;51.538;6.728;2023-03-01T01:42:27;102649.00;;;2.55;65.02
19086;BME280;9675;51.538;6.728;2023-03-01T01:45:28;102653.03;;;2.53;65.39
19086;BME280;9675;51.538;6.728;2023-03-01T01:48:00;102649.41;;;2.51;65.72
19086;BME280;9675;51.538;6.728;2023-03-01T01:50:30;102650.16;;;2.50;65.62
19086;BME280;9675;51.538;6.728;2023-03-01T01:53:07;102650.56;;;2.46;66.15
19086;BME280;9675;51.538;6.728;2023-03-01T01:55:39;102655.31;;;2.43;66.14
19086;BME280;9675;51.538;6.728;2023-03-01T01:58:13;102653.50;;;2.42;66.98
19086;BME280;9675;51.538;6.728;2023-03-01T02:00:42;102655.88;;;2.40;67.02
19086;BME280;9675;51.538;6.728;2023-03-01T02:03:13;102658.22;;;2.39;66.67
19086;BME280;9675;51.538;6.728;2023-03-01T02:05:49;102653.72;;;2.36;67.67
19086;BME280;9675;51.538;6.728;2023-03-01T02:08:20;102659.22;;;2.32;67.42
19086;BME280;9675;51.538;6.728;2023-03-01T02:10:50;102659.03;;;2.31;67.94
19086;BME280;9675;51.538;6.728;2023-03-01T02:13:19;102659.75;;;2.30;67.82
19086;BME280;9675;51.538;6.728;2023-03-01T02:15:46;102652.84;;;2.29;67.96
19086;BME280;9675;51.538;6.728;2023-03-01T02:18:18;102641.63;;;2.27;68.51
19086;BME280;9675;51.538;6.728;2023-03-01T02:21:01;102626.03;;;2.24;68.14
19086;BME280;9675;51.538;6.728;2023-03-01T02:23:33;102626.78;;;2.23;68.41
19086;BME280;9675;51.538;6.728;2023-03-01T02:26:08;102627.53;;;2.22;69.35
19086;BME280;9675;51.538;6.728;2023-03-01T02:28:43;102633.16;;;2.19;68.91
19086;BME280;9675;51.538;6.728;2023-03-01T02:31:14;102633.72;;;2.17;69.50
19086;BME280;9675;51.538;6.728;2023-03-01T02:34:01;102623.22;;;2.13;69.95
19086;BME280;9675;51.538;6.728;2023-03-01T02:36:35;102617.78;;;2.10;70.21
19086;BME280;9675;51.538;6.728;2023-03-01T02:39:06;102621.06;;;2.09;69.71
19086;BME280;9675;51.538;6.728;2023-03-01T02:41:38;102621.47;;;2.05;nan
19086;BME280;9675;51.538;6.728;2023-03-01T02:44:07;102629.09;;;2.05;70.39
19086;BME280;9675;51.538;6.728;2023-03-01T02:46:42;102629.81;;;2.04;70.36
19086;BME280;9675;51.538;6.728;2023-03-01T02:49:20;102625.13;;;2.00;71.06
19086;BME280;9675;51.538;6.728;2023-03-01T02:52:08;102628.41;;;1.99;71.09
19086;BME280;9675;51.538;6.728;2023-03-01T02:54:46;102626.59;;;1.98;70.87
19086;BME280;9675;51.538;6.728;2023-03-01T02:57:14;102637.88;;;1.93;71.32
19086;BME280;9675;51.538;6.728;2023-03-01T02:59:43;102630.97;;;1.92;71.52
19086;BME280;9675;51.538;6.728;2023-03-01T03:02:21;102641.88;;;1.91;71.99
19086;BME280;9675;51.538;6.728;2023-03-01T03:05:05;102640.81;;;1.89;71.52
19086;BME280;9675;51.538;6.728;2023-03-01T03:07:35;102641.53;;;1.88;71.85
19086;BME280;9675;51.538;6.728;2023-03-01T03:10:06;102638.66;;;1.85;71.96
19086;BME280;9675;51.538;6.728;2023-03-01T03:12:33;102641.72;;;1.83;72.38
19086;BME280;9675;51.538;6.728;2023-03-01T03:15:02;102639.19;;;1.83;72.27
19086;BME280;9675;51.538;6.728;2023-03-01T03:17:35;102627.06;;;1.80;72.63
19086;BME280;9675;51.538;6.728;2023-03-01T03:20:04;102625.25;;;1.79;72.35
19086;BME280;9675;51.538;6.728;2023-03-01T03:22:31;102627.81;;;1.79;72.62
19086;BME280;9675;51.538;6.728;2023-03-01T03:24:59;102626.72;;;1.77;72.45
19086;BME280;9675;51.538;6.728;2023-03-01T03:27:27;102634.31;;;1.77;72.45
19086;BME280;9675;51.538;6.728;2023-03-01T03:29:54;102622.22;;;1.75;73.09
19086;BME280;9675;51.538;6.728;2023-03-01T03:32:23;102628.56;;;1.71;73.22
19086;BME280;9675;51.538;6.728;2023-03-01T03:34:50;102624.06;;;1.68;72.71
19086;BME280;9675;51.538;6.728;2023-03-01T03:37:17;102621.31;;;1.67;73.39
19086;BME280;9675;51.538;6.728;2023-03-01T03:39:59;102619.50;;;1.66;73.31
19086;BME280;9675;51.538;6.728;2023-03-01T03:42:26;102621.72;;;1.63;73.80
19086;BME280;9675;51.538;6.728;2023-03-01T03:44:53;102622.44;;;1.62;73.55
19086;BME280;9675;51.538;6.728;2023-03-01T03:47:20;102629.91;;;1.60;73.64
19086;BME280;9675;51.538;6.728;2023-03-01T03:49:48;102624.47;;;1.57;73.63
19086;BME280;9675;51.538;6.728;2023-03-01T03:52:15;102618.47;;;1.57;73.99
19086;BME280;9675;51.538;6.728;2023-03-01T03:54:42;102621.75;;;1.56;73.95
19086;BME280;9675;51.538;6.728;2023-03-01T03:57:09;102612.16;;;1.53;73.80
19086;BME280;9675;51.538;6.728;2023-03-01T03:59:36;102607.81;;;1.52;74.13
19086;BME280;9675;51.538;6.728;2023-03-01T04:02:03;102604.38;;;1.52;74.16
19086;BME280;9675;51.538;6.728;2023-03-01T04:04:31;102610.94;;;1.50;74.89
19086;BME280;9675;51.538;6.728;2023-03-01T04:06:59;102599.69;;;1.48;74.62
19086;BME280;9675;51.538;6.728;2023-03-01T04:09:26;102599.50;;;1.46;74.46
19086;BME280;9675;51.538;6.728;2023-03-01T04:11:55;102581.41;;;1.43;75.09
19086;BME280;9675;51.538;6.728;2023-03-01T04:14:22;102584.47;;;1.41;74.57
19086;BME280;9675;51.538;6.728;2023-03-01T04:16:49;102590.47;;;1.41;74.52
19086;BME280;9675;51.538;6.728;2023-03-01T04:19:16;102577.63;;;1.40;75.11
19086;BME280;9675;51.538;6.728;2023-03-01T04:21:43;102589.22;;;1.38;75.10
19086;BME280;9675;51.538;6.728;2023-03-01T04:24:12;102584.69;;;1.35;75.59
19086;BME280;9675;51.538;6.728;2023-03-01T04:26:39;102586.88;;;1.32;75.50
19086;BME280;9675;51.538;6.728;2023-03-01T04:29:06;102585.25;;;1.33;75.82
19086;BME280;9675;51.538;6.728;2023-03-01T04:31:33;102590.00;;;1.30;75.97
19086;BME280;9675;51.538;6.728;2023-03-01T04:34:00;102585.47;;;1.27;75.90
19086;BME280;9675;51.538;6.728;2023-03-01T04:36:29;102583.47;;;1.24;76.03
19086;BME280;9675;51.538;6.728;2023-03-01T04:38:56;102585.84;;;1.23;76.19
19086;BME280;9675;51.538;6.728;2023-03-01T04:41:25;102590.00;;;1.22;76.35
19086;BME280;9675;51.538;6.728;2023-03-01T04:43:52;102590.75;;;1.21;76.59
19086;BME280;9675;51.538;6.728;2023-03-01T04:46:20;102587.88;;;1.18;76.58
19086;BME280;9675;51.538;6.728;2023-03-01T04:48:48;102579.88;;;1.15;76.93
19086;BME280;9675;51.538;6.728;2023-03-01T04:51:16;102586.59;;;1.15;76.17
19086;BME280;9675;51.538;6.728;2023-03-01T04:53:44;102590.09;;;0.94;77.17
19086;BME280;9675;51.538;6.728;2023-03-01T04:56:12;102585.78;;;0.79;79.12
19086;BME280;9675;51.538;6.728;2023-03-01T04:58:41;102579.13;;;0.72;79.13
19086;BME280;9675;51.538;6.728;2023-03-01T05:01:10;102580.00;;;0.73;79.30
19086;BME280;9675;51.538;6.728;2023-03-01T05:03:41;102574.41;;;0.68;79.94
19086;BME280;9675;51.538;6.728;2023-03-01T05:06:09;102564.13;;;0.67;80.40
19086;BME280;9675;51.538;6.728;2023-03-01T05:08:37;102569.72;;;0.64;80.71
19086;BME280;9675;51.538;6.728;2023-03-01T05:11:04;102564.31;;;0.61;80.98
19086;BME280;9675;51.538;6.728;2023-03-01T05:13:35;102566.66;;;0.60;80.60
19086;BME280;9675;51.538;6.728;2023-03-01T05:16:06;102563.03;;;0.58;81.25
19086;BME280;9675;51.538;6.728;2023-03-01T05:18:37;102569.56;;;0.56;81.23
19086;BME280;9675;51.538;6.728;2023-03-01T05:21:07;102561.25;;;0.57;81.36
19086;BME280;9675;51.538;6.728;2023-03-01T05:23:34;102558.16;;;0.52;82.14
19086;BME280;9675;51.538;6.728;2023-03-01T05:26:04;102566.31;;;0.50;82.19
19086;BME280;9675;51.538;6.728;2023-03-01T05:28:32;102562.69;;;0.48;82.11
19086;BME280;9675;51.538;6.728;2023-03-01T05:30:59;102557.47;;;0.46;82.61
19086;BME280;9675;51.538;6.728;2023-03-01T05:33:28;102559.09;;;0.46;82.55
19086;BME280;9675;51.538;6.728;2023-03-01T05:35:59;102552.94;;;0.43;82.82
19086;BME280;9675;51.538;6.728;2023-03-01T05:38:26;102551.13;;;0.42;83.11
19086;BME280;9675;51.538;6.728;2023-03-01T05:40:53;102549.13;;;0.40;83.51
19086;BME280;9675;51.538;6.728;2023-03-01T05:43:20;102553.50;;;0.34;83.27
19086;BME280;9675;51.538;6.728;2023-03-01T05:45:47;102553.28;;;0.32;83.81
19086;BME280;9675;51.538;6.728;2023-03-01T05:48:14;102544.63;;;0.30;84.25
19086;BME280;9675;51.538;6.728;2023-03-01T05:50:44;102552.94;;;0.29;84.50
19086;BME280;9675;51.538;6.728;2023-03-01T05:53:16;102551.84;;;0.27;84.79
19086;BME280;9675;51.538;6.728;2023-03-01T05:55:45;102550.78;;;0.25;84.63
19086;BME280;9675;51.538;6.728;2023-03-01T05:58:15;102554.75;;;0.23;84.94
19086;BME280;9675;51.538;6.728;2023-03-01T06:00:45;102556.94;;;0.20;85.05
19086;BME280;9675;51.538;6.728;2023-03-01T06:03:14;102553.31;;;0.18;85.88
19086;BME280;9675;51.538;6.728;2023-03-01T06:05:44;102551.88;;;0.13;85.58
19086;BME280;9675;51.538;6.728;2023-03-01T06:08:12;102555.13;;;0.12;85.88
19086;BME280;9675;51.538;6.728;2023-03-01T06:10:39;102559.47;;;0.13;85.98
19086;BME280;9675;51.538;6.728;2023-03-01T06:13:07;102567.25;;;0.15;86.41
19086;BME280;9675;51.538;6.728;2023-03-01T06:15:34;102560.91;;;0.11;86.34
19086;BME280;9675;51.538;6.728;2023-03-01T06:18:01;102560.56;;;0.08;86.68
19086;BME280;9675;51.538;6.728;2023-03-01T06:20:29;102551.69;;;0.05;87.02
19086;BME280;9675;51.538;6.728;2023-03-01T06:22:57;102551.50;;;0.03;87.88
19086;BME280;9675;51.538;6.728;2023-03-01T06:25:27;102546.81;;;0.13;86.51
19086;BME280;9675;51.538;6.728;2023-03-01T06:27:54;102537.59;;;0.14;85.94
19086;BME280;9675;51.538;6.728;2023-03-01T06:30:24;102525.63;;;0.13;86.52
19086;BME280;9675;51.538;6.728;2023-03-01T06:32:53;102534.88;;;0.12;86.31
19086;BME280;9675;51.538;6.728;2023-03-01T06:35:27;102532.53;;;0.14;86.83
19086;BME280;9675;51.538;6.728;2023-03-01T06:38:05;102541.94;;;0.15;86.37
19086;BME280;9675;51.538;6.728;2023-03-01T06:40:37;102541.38;;;0.17;86.69
19086;BME280;9675;51.538;6.728;2023-03-01T06:43:07;102544.63;;;0.16;86.76
19086;BME280;9675;51.538;6.728;2023-03-01T06:45:34;102541.03;;;0.14;87.11
19086;BME280;9675;51.538;6.728;2023-03-01T06:48:03;102538.88;;;0.10;87.15
19086;BME280;9675;51.538;6.728;2023-03-01T06:50:30;102532.00;;;0.09;87.62
19086;BME280;9675;51.538;6.728;2023-03-01T06:52:59;102537.06;;;0.09;87.17
19086;BME280;9675;51.538;6.728;2023-03-01T06:55:26;102538.88;;;0.10;87.98
19086;BME280;9675;51.538;6.728;2023-03-01T06:57:55;102544.66;;;0.09;88.30
19086;BME280;9675;51.538;6.728;2023-03-01T07:00:24;102545.38;;;0.08;88.03
19086;BME280;9675;51.538;6.728;2023-03-01T07:02:51;102549.34;;;0.06;90.58
19086;BME280;9675;51.538;6.728;2023-03-01T07:05:19;102555.16;;;0.05;89.53
19086;BME280;9675;51.538;6.728;2023-03-01T07:07:46;102550.09;;;0.05;90.39
19086;BME280;9675;51.538;6.728;2023-03-01T07:10:14;102557.84;;;0.07;89.38
19086;BME280;9675;51.538;6.728;2023-03-01T07:12:41;102555.16;;;0.05;89.34
19086;BME280;9675;51.538;6.728;2023-03-01T07:15:10;102556.94;;;0.06;91.03
19086;BME280;9675;51.538;6.728;2023-03-01T07:17:37;102556.03;;;0.06;90.71
19086;BME280;9675;51.538;6.728;2023-03-01T07:20:05;102554.41;;;0.06;91.40
19086;BME280;9675;51.538;6.728;2023-03-01T07:22:32;102562.38;;;0.09;90.70
19086;BME280;9675;51.538;6.728;2023-03-01T07:24:59;102559.47;;;0.06;90.29
19086;BME280;9675;51.538;6.728;2023-03-01T07:27:27;102553.69;;;0.07;91.02
19086;BME280;9675;51.538;6.728;2023-03-01T07:29:54;102550.94;;;0.06;92.21
19086;BME280;9675;51.538;6.728;2023-03-01T07:32:21;102548.25;;;0.04;91.88
19086;BME280;9675;51.538;6.728;2023-03-01T07:34:48;102551.69;;;0.05;92.74
19086;BME280;9675;51.538;6.728;2023-03-01T07:37:16;102551.50;;;0.03;92.97
19086;BME280;9675;51.538;6.728;2023-03-01T07:39:43;102540.47;;;0.03;93.02
19086;BME280;9675;51.538;6.728;2023-03-01T07:42:10;102542.28;;;0.04;93.83
19086;BME280;9675;51.538;6.728;2023-03-01T07:44:38;102548.25;;;0.04;93.49
19086;BME280;9675;51.538;6.728;2023-03-01T07:47:05;102541.22;;;0.09;93.10
19086;BME280;9675;51.538;6.728;2023-03-01T07:49:32;102541.41;;;0.10;93.74
19086;BME280;9675;51.538;6.728;2023-03-01T07:51:59;102545.38;;;0.08;94.47
19086;BME280;9675;51.538;6.728;2023-03-01T07:54:26;102540.81;;;0.06;94.55
19086;BME280;9675;51.538;6.728;2023-03-01T07:56:53;102539.94;;;0.05;95.76
19086;BME280;9675;51.538;6.728;2023-03-01T07:59:21;102541.72;;;0.06;96.38
19086;BME280;9675;51.538;6.728;2023-03-01T08:01:50;102541.72;;;0.06;96.44
19086;BME280;9675;51.538;6.728;2023-03-01T08:04:17;102543.56;;;0.07;97.28
19086;BME280;9675;51.538;6.728;2023-03-01T08:06:44;102537.41;;;0.05;97.80
19086;BME280;9675;51.538;6.728;2023-03-01T08:09:11;102544.47;;;0.08;98.14
19086;BME280;9675;51.538;6.728;2023-03-01T08:11:38;102539.59;;;0.09;99.08
19086;BME280;9675;51.538;6.728;2023-03-01T08:14:06;102542.47;;;0.12;99.36
19086;BME280;9675;51.538;6.728;2023-03-01T08:16:34;102540.13;;;0.14;99.14
19086;BME280;9675;51.538;6.728;2023-03-01T08:19:06;102545.00;;;0.19;99.67
19086;BME280;9675;51.538;6.728;2023-03-01T08:21:33;102550.78;;;0.25;99.47
19086;BME280;9675;51.538;6.728;2023-03-01T08:24:01;102541.19;;;0.30;98.77
19086;BME280;9675;51.538;6.728;2023-03-01T08:26:29;102545.88;;;0.34;98.21
19086;BME280;9675;51.538;6.728;2023-03-01T08:28:56;102539.91;;;0.40;98.01
19086;BME280;9675;51.538;6.728;2023-03-01T08:31:26;102538.09;;;0.47;97.42
19086;BME280;9675;51.538;6.728;2023-03-01T08:33:57;102529.56;;;0.53;96.86
19086;BME280;9675;51.538;6.728;2023-03-01T08:36:28;102528.97;;;0.63;96.15
19086;BME280;9675;51.538;6.728;2023-03-01T08:38:57;102535.84;;;0.71;95.92
19086;BME280;9675;51.538;6.728;2023-03-01T08:41:25;102524.22;;;0.80;94.82
19086;BME280;9675;51.538;6.728;2023-03-01T08:43:53;102520.56;;;0.92;93.46
19086;BME280;9675;51.538;6.728;2023-03-01T08:46:25;102524.69;;;0.99;92.89
19086;BME280;9675;51.538;6.728;2023-03-01T08:48:52;102514.72;;;1.07;92.10
19086;BME280;9675;51.538;6.728;2023-03-01T08:51:21;102513.03;;;1.15;91.76
19086;BME280;9675;51.538;6.728;2023-03-01T08:53:50;102512.28;;;1.23;90.66
19086;BME280;9675;51.538;6.728;2023-03-01T08:56:18;102522.53;;;1.32;89.79
19086;BME280;9675;51.538;6.728;2023-03-01T08:58:47;102518.16;;;1.38;89.46
19086;BME280;9675;51.538;6.728;2023-03-01T09:01:17;102521.00;;;1.48;88.64
19086;BME280;9675;51.538;6.728;2023-03-01T09:03:45;102513.69;;;1.58;88.65
19086;BME280;9675;51.538;6.728;2023-03-01T09:06:13;102507.66;;;1.64;86.34
19086;BME280;9675;51.538;6.728;2023-03-01T09:08:44;102511.41;;;1.75;87.47
19086;BME280;9675;51.538;6.728;2023-03-01T09:11:16;102520.03;;;1.84;86.46
19086;BME280;9675;51.538;6.728;2023-03-01T09:13:44;102507.28;;;1.91;86.00
19086;BME280;9675;51.538;6.728;2023-03-01T09:16:14;102500.66;;;2.00;85.01
19086;BME280;9675;51.538;6.728;2023-03-01T09:18:42;102498.22;;;2.09;84.38
19086;BME280;9675;51.538;6.728;2023-03-01T09:21:12;102500.13;;;2.19;83.96
19086;BME280;9675;51.538;6.728;2023-03-01T09:23:42;102497.53;;;2.26;83.44
19086;BME280;9675;51.538;6.728;2023-03-01T09:26:12;102490.31;;;2.37;83.03
19086;BME280;9675;51.538;6.728;2023-03-01T09:28:40;102481.56;;;2.42;80.38
19086;BME280;9675;51.538;6.728;2023-03-01T09:31:07;102486.41;;;2.48;79.25
19086;BME280;9675;51.538;6.728;2023-03-01T09:33:34;102489.50;;;2.61;80.20
19086;BME280;9675;51.538;6.728;2023-03-01T09:36:04;102483.63;;;2.69;78.74
19086;BME280;9675;51.538;6.728;2023-03-01T09:38:33;102483.44;;;2.83;78.97
19086;BME280;9675;51.538;6.728;2023-03-01T09:41:01;102485.13;;;2.91;77.05
19086;BME280;9675;51.538;6.728;2023-03-01T09:43:41;102477.91;;;3.03;76.33
19086;BME280;9675;51.538;6.728;2023-03-01T09:46:13;102477.56;;;3.16;76.26
19086;BME280;9675;51.538;6.728;2023-03-01T09:48:46;102478.09;;;3.29;75.52
19086;BME280;9675;51.538;6.728;2023-03-01T09:51:21;102473.38;;;3.40;74.11
19086;BME280;9675;51.538;6.728;2023-03-01T09:53:50;102473.59;;;3.51;73.83
19086;BME280;9675;51.538;6.728;2023-03-01T09:56:25;102460.31;;;3.62;72.40
19086;BME280;9675;51.538;6.728;2023-03-01T09:59:19;102460.25;;;3.77;72.28
19086;BME280;9675;51.538;6.728;2023-03-01T10:01:54;102458.19;;;3.91;71.14
19086;BME280;9675;51.538;6.728;2023-03-01T10:04:40;102450.16;;;4.03;71.69
19086;BME280;9675;51.538;6.728;2023-03-01T10:07:27;102447.91;;;4.15;69.29
19086;BME280;9675;51.538;6.728;2023-03-01T10:09:57;102454.38;;;4.20;68.82
19086;BME280;9675;51.538;6.728;2023-03-01T10:12:41;102452.00;;;4.30;69.05
19086;BME280;9675;51.538;6.728;2023-03-01T10:15:15;102448.13;;;4.42;68.17
19086;BME280;9675;51.538;6.728;2023-03-01T10:17:50;102439.44;;;4.57;65.01
19086;BME280;9675;51.538;6.728;2023-03-01T10:20:22;102436.13;;;4.67;65.14
19086;BME280;9675;51.538;6.728;2023-03-01T10:22:50;102444.41;;;4.82;64.82
19086;BME280;9675;51.538;6.728;2023-03-01T10:25:36;102435.38;;;4.94;61.81
19086;BME280;9675;51.538;6.728;2023-03-01T10:28:17;102424.41;;;5.12;61.27
19086;BME280;9675;51.538;6.728;2023-03-01T10:30:48;102414.91;;;5.28;61.70
19086;BME280;9675;51.538;6.728;2023-03-01T10:33:20;102412.00;;;5.42;60.80
19086;BME280;9675;51.538;6.728;2023-03-01T10:35:49;102425.94;;;5.54;60.43
19086;BME280;9675;51.538;6.728;2023-03-01T10:38:18;102428.75;;;5.66;59.33
19086;BME280;9675;51.538;6.728;2023-03-01T10:40:55;102421.06;;;5.75;60.37
19086;BME280;9675;51.538;6.728;2023-03-01T10:43:25;102424.78;;;5.87;58.60
19086;BME280;9675;51.538;6.728;2023-03-01T10:45:55;102424.88;;;5.97;59.26
19086;BME280;9675;51.538;6.728;2023-03-01T10:48:24;102426.03;;;6.09;58.90
19086;BME280;9675;51.538;6.728;2023-03-01T10:51:06;102413.06;;;6.16;58.31
19086;BME280;9675;51.538;6.728;2023-03-01T10:53:37;102410.28;;;6.23;58.50
19086;BME280;9675;51.538;6.728;2023-03-01T10:56:08;102392.78;;;6.28;58.50
19086;BME280;9675;51.538;6.728;2023-03-01T10:58:38;102396.69;;;6.33;57.21
19086;BME280;9675;51.538;6.728;2023-03-01T11:01:26;102393.28;;;6.43;56.85
19086;BME280;9675;51.538;6.728;2023-03-01T11:04:12;102372.69;;;6.60;56.51
19086;BME280;9675;51.538;6.728;2023-03-01T11:06:40;102372.47;;;6.67;56.86
19086;BME280;9675;51.538;6.728;2023-03-01T11:09:15;102356.03;;;6.73;55.57
19086;BME280;9675;51.538;6.728;2023-03-01T11:11:45;102365.66;;;6.86;55.24
19086;BME280;9675;51.538;6.728;2023-03-01T11:14:17;102369.56;;;7.01;54.72
19086;BME280;9675;51.538;6.728;2023-03-01T11:16:49;102372.19;;;7.11;55.02
19086;BME280;9675;51.538;6.728;2023-03-01T11:19:24;102372.88;;;7.19;54.69
19086;BME280;9675;51.538;6.728;2023-03-01T11:21:59;102378.38;;;7.23;54.46
19086;BME280;9675;51.538;6.728;2023-03-01T11:24:39;102365.59;;;7.34;55.02
19086;BME280;9675;51.538;6.728;2023-03-01T11:27:18;102365.09;;;7.38;54.57
19086;BME280;9675;51.538;6.728;2023-03-01T11:29:52;102365.38;;;7.41;54.06
19086;BME280;9675;51.538;6.728;2023-03-01T11:32:26;102359.75;;;7.45;53.46
19086;BME280;9675;51.538;6.728;2023-03-01T11:35:01;102356.81;;;7.50;52.36
19086;BME280;9675;51.538;6.728;2023-03-01T11:37:36;102354.13;;;7.59;52.38
19086;BME280;9675;51.538;6.728;2023-03-01T11:40:15;102358.38;;;7.68;52.00
19086;BME280;9675;51.538;6.728;2023-03-01T11:43:04;102348.78;;;7.76;52.10
19086;BME280;9675;51.538;6.728;2023-03-01T11:45:52;102344.41;;;7.85;51.42
19086;BME280;9675;51.538;6.728;2023-03-01T11:48:47;102351.88;;;7.92;51.14
19086;BME280;9675;51.538;6.728;2023-03-01T11:51:24;102349.31;;;8.02;51.67
19086;BME280;9675;51.538;6.728;2023-03-01T11:56:54;102356.34;;;8.25;50.51
19086;BME280;9675;51.538;6.728;2023-03-01T11:59:48;102361.75;;;8.28;50.57
19086;BME280;9675;51.538;6.728;2023-03-01T12:02:49;102367.16;;;8.31;50.82
19086;BME280;9675;51.538;6.728;2023-03-01T12:09:35;102351.72;;;8.41;49.40
19086;BME280;9675;51.538;6.728;2023-03-01T12:12:35;102346.72;;;8.43;49.44
19086;BME280;9675;51.538;6.728;2023-03-01T12:15:32;102334.63;;;8.52;50.08
19086;BME280;9675;51.538;6.728;2023-03-01T12:18:31;102341.00;;;8.67;49.55
19086;BME280;9675;51.538;6.728;2023-03-01T12:21:21;102327.75;;;8.83;49.65
19086;BME280;9675;51.538;6.728;2023-03-01T12:24:30;102327.09;;;8.85;49.13
19086;BME280;9675;51.538;6.728;2023-03-01T12:27:19;102331.44;;;8.86;48.17
19086;BME280;9675;51.538;6.728;2023-03-01T12:30:02;102322.19;;;8.88;47.64
19086;BME280;9675;51.538;6.728;2023-03-01T12:32:48;102322.03;;;8.97;48.21
19086;BME280;9675;51.538;6.728;2023-03-01T12:35:53;102313.75;;;9.11;48.19
19086;BME280;9675;51.538;6.728;2023-03-01T12:38:39;102297.59;;;9.24;48.12
19086;BME280;9675;51.538;6.728;2023-03-01T12:41:41;102300.09;;;9.34;47.37
19086;BME280;9675;51.538;6.728;2023-03-01T12:44:29;102294.41;;;9.38;47.71
19086;BME280;9675;51.538;6.728;2023-03-01T12:47:18;102299.03;;;9.42;46.82
19086;BME280;9675;51.538;6.728;2023-03-01T12:49:52;102289.22;;;9.48;47.15
19086;BME280;9675;51.538;6.728;2023-03-01T12:52:29;102287.25;;;9.56;47.14
19086;BME280;9675;51.538;6.728;2023-03-01T12:55:06;102285.56;;;9.56;47.11
19086;BME280;9675;51.538;6.728;2023-03-01T12:57:42;102276.53;;;9.61;46.72
19086;BME280;9675;51.538;6.728;2023-03-01T13:00:27;102264.44;;;9.60;46.59
19086;BME280;9675;51.538;6.728;2023-03-01T13:03:09;102279.22;;;9.63;46.52
19086;BME280;9675;51.538;6.728;2023-03-01T13:05:52;102272.28;;;9.62;46.37
19086;BME280;9675;51.538;6.728;2023-03-01T13:08:30;102268.25;;;9.65;46.21
19086;BME280;9675;51.538;6.728;2023-03-01T13:11:05;102264.59;;;9.73;46.19
19086;BME280;9675;51.538;6.728;2023-03-01T13:13:38;102261.69;;;9.80;45.90
19086;BME280;9675;51.538;6.728;2023-03-01T13:16:40;102272.66;;;9.90;46.25
19086;BME280;9675;51.538;6.728;2023-03-01T13:19:14;102265.28;;;9.82;45.36
19086;BME280;9675;51.538;6.728;2023-03-01T13:21:44;102260.16;;;9.82;45.12
19086;BME280;9675;51.538;6.728;2023-03-01T13:24:26;102265.31;;;9.94;45.20
19086;BME280;9675;51.538;6.728;2023-03-01T13:27:22;102252.78;;;9.99;44.94
19086;BME280;9675;51.538;6.728;2023-03-01T13:29:57;102252.78;;;9.99;44.75
19086;BME280;9675;51.538;6.728;2023-03-01T13:32:30;102259.75;;;10.00;44.78
19086;BME280;9675;51.538;6.728;2023-03-01T13:34:59;102252.22;;;10.03;44.55
19086;BME280;9675;51.538;6.728;2023-03-01T13:37:38;102242.84;;;10.03;44.30
19086;BME280;9675;51.538;6.728;2023-03-01T13:40:58;102235.44;;;10.08;44.41
19086;BME280;9675;51.538;6.728;2023-03-01T13:43:32;102233.22;;;10.12;44.23